Aviation Digital Data Service (ADDS)

Output produced by METARs form (1737 UTC 21 April 2018)
found at http://aviationweather.gov/adds/metars/
 
LHDC 211715Z 21008KT CAVOK 19/06 Q1017 NOSIG
LHDC 211645Z 21008KT CAVOK 21/06 Q1017 NOSIG
LHDC 211615Z 22010KT CAVOK 22/06 Q1018 NOSIG
LHDC 211545Z 22009KT CAVOK 22/06 Q1018 NOSIG
LHDC 211515Z 22009KT CAVOK 23/06 Q1018 NOSIG
LHDC 211445Z 24008KT CAVOK 23/07 Q1018 NOSIG
LHDC 211415Z 24009KT CAVOK 23/05 Q1019 NOSIG
LHDC 211345Z 24008KT CAVOK 23/04 Q1019 NOSIG
LHDC 211315Z 23008KT CAVOK 23/07 Q1019 NOSIG
LHDC 211245Z 24008KT CAVOK 23/06 Q1020 NOSIG
LHDC 211215Z 23006KT CAVOK 23/08 Q1020 NOSIG
LHDC 211145Z 25005KT CAVOK 22/05 Q1020 NOSIG